sensor_id;sensor_type;location;lat;lon;timestamp;P1;durP1;ratioP1;P2;durP2;ratioP2
46334;SDS011;32051;48.882;9.210;2023-02-11T00:01:08;44.72;;;19.65;;
46334;SDS011;32051;48.882;9.210;2023-02-11T00:03:35;40.45;;;19.05;;
46334;SDS011;32051;48.882;9.210;2023-02-11T00:06:03;36.95;;;20.65;;
46334;SDS011;32051;48.882;9.210;2023-02-11T00:08:30;47.05;;;20.17;;
46334;SDS011;32051;48.882;9.210;2023-02-11T00:10:56;41.13;;;20.23;;
46334;SDS011;32051;48.882;9.210;2023-02-11T00:13:22;35.00;;;17.58;;
46334;SDS011;32051;48.882;9.210;2023-02-11T00:15:49;36.75;;;17.80;;
46334;SDS011;32051;48.882;9.210;2023-02-11T00:18:15;37.08;;;18.45;;
46334;SDS011;32051;48.882;9.210;2023-02-11T00:20:41;34.25;;;19.05;;
46334;SDS011;32051;48.882;9.210;2023-02-11T00:23:08;30.92;;;19.55;;
46334;SDS011;32051;48.882;9.210;2023-02-11T00:25:39;30.52;;;18.35;;
46334;SDS011;32051;48.882;9.210;2023-02-11T00:28:05;39.83;;;21.00;;
46334;SDS011;32051;48.882;9.210;2023-02-11T00:30:31;39.15;;;20.15;;
46334;SDS011;32051;48.882;9.210;2023-02-11T00:32:58;39.90;;;19.15;;
46334;SDS011;32051;48.882;9.210;2023-02-11T00:35:24;38.17;;;18.60;;
46334;SDS011;32051;48.882;9.210;2023-02-11T00:37:51;43.78;;;21.70;;
46334;SDS011;32051;48.882;9.210;2023-02-11T00:40:18;36.63;;;21.02;;
46334;SDS011;32051;48.882;9.210;2023-02-11T00:42:44;42.72;;;22.15;;
46334;SDS011;32051;48.882;9.210;2023-02-11T00:45:10;48.05;;;20.70;;
46334;SDS011;32051;48.882;9.210;2023-02-11T00:47:36;49.20;;;22.80;;
46334;SDS011;32051;48.882;9.210;2023-02-11T00:50:03;46.10;;;21.88;;
46334;SDS011;32051;48.882;9.210;2023-02-11T00:52:30;37.97;;;20.20;;
46334;SDS011;32051;48.882;9.210;2023-02-11T00:54:56;41.20;;;21.88;;
46334;SDS011;32051;48.882;9.210;2023-02-11T00:57:22;51.30;;;22.90;;
46334;SDS011;32051;48.882;9.210;2023-02-11T00:59:48;36.83;;;21.38;;
46334;SDS011;32051;48.882;9.210;2023-02-11T01:02:14;40.88;;;21.58;;
46334;SDS011;32051;48.882;9.210;2023-02-11T01:04:41;46.70;;;21.38;;
46334;SDS011;32051;48.882;9.210;2023-02-11T01:07:07;51.58;;;21.60;;
46334;SDS011;32051;48.882;9.210;2023-02-11T01:09:33;53.67;;;23.13;;
46334;SDS011;32051;48.882;9.210;2023-02-11T01:12:04;37.35;;;20.42;;
46334;SDS011;32051;48.882;9.210;2023-02-11T01:14:30;51.10;;;21.05;;
46334;SDS011;32051;48.882;9.210;2023-02-11T01:16:56;49.65;;;21.95;;
46334;SDS011;32051;48.882;9.210;2023-02-11T01:19:23;39.75;;;21.13;;
46334;SDS011;32051;48.882;9.210;2023-02-11T01:21:49;41.67;;;21.20;;
46334;SDS011;32051;48.882;9.210;2023-02-11T01:24:15;41.17;;;21.73;;
46334;SDS011;32051;48.882;9.210;2023-02-11T01:26:42;45.22;;;22.05;;
46334;SDS011;32051;48.882;9.210;2023-02-11T01:29:09;40.42;;;22.00;;
46334;SDS011;32051;48.882;9.210;2023-02-11T01:31:35;45.72;;;21.52;;
46334;SDS011;32051;48.882;9.210;2023-02-11T01:34:01;38.83;;;20.55;;
46334;SDS011;32051;48.882;9.210;2023-02-11T01:36:27;44.72;;;20.50;;
46334;SDS011;32051;48.882;9.210;2023-02-11T01:38:53;53.00;;;23.05;;
46334;SDS011;32051;48.882;9.210;2023-02-11T01:41:19;39.60;;;20.95;;
46334;SDS011;32051;48.882;9.210;2023-02-11T01:43:47;54.78;;;22.92;;
46334;SDS011;32051;48.882;9.210;2023-02-11T01:46:22;44.65;;;20.13;;
46334;SDS011;32051;48.882;9.210;2023-02-11T01:48:52;41.65;;;21.17;;
46334;SDS011;32051;48.882;9.210;2023-02-11T01:51:21;43.28;;;20.95;;
46334;SDS011;32051;48.882;9.210;2023-02-11T01:53:49;45.42;;;21.92;;
46334;SDS011;32051;48.882;9.210;2023-02-11T01:56:36;41.63;;;20.70;;
46334;SDS011;32051;48.882;9.210;2023-02-11T01:59:43;41.60;;;19.08;;
46334;SDS011;32051;48.882;9.210;2023-02-11T02:02:11;38.63;;;22.08;;
46334;SDS011;32051;48.882;9.210;2023-02-11T02:04:45;50.28;;;20.55;;
46334;SDS011;32051;48.882;9.210;2023-02-11T02:07:16;40.85;;;20.75;;
46334;SDS011;32051;48.882;9.210;2023-02-11T02:09:45;50.10;;;20.05;;
46334;SDS011;32051;48.882;9.210;2023-02-11T02:12:13;47.10;;;20.38;;
46334;SDS011;32051;48.882;9.210;2023-02-11T02:14:40;52.03;;;20.50;;
46334;SDS011;32051;48.882;9.210;2023-02-11T02:17:08;41.65;;;21.55;;
46334;SDS011;32051;48.882;9.210;2023-02-11T02:27:47;38.42;;;20.52;;
46334;SDS011;32051;48.882;9.210;2023-02-11T02:33:23;39.70;;;20.23;;
46334;SDS011;32051;48.882;9.210;2023-02-11T02:38:22;40.72;;;22.20;;
46334;SDS011;32051;48.882;9.210;2023-02-11T02:43:25;44.08;;;21.90;;
46334;SDS011;32051;48.882;9.210;2023-02-11T02:45:52;41.13;;;20.38;;
46334;SDS011;32051;48.882;9.210;2023-02-11T02:48:28;40.75;;;20.38;;
46334;SDS011;32051;48.882;9.210;2023-02-11T02:50:59;43.58;;;22.77;;
46334;SDS011;32051;48.882;9.210;2023-02-11T02:53:31;35.25;;;20.98;;
46334;SDS011;32051;48.882;9.210;2023-02-11T03:04:28;41.67;;;20.15;;
46334;SDS011;32051;48.882;9.210;2023-02-11T03:07:28;39.40;;;21.60;;
46334;SDS011;32051;48.882;9.210;2023-02-11T03:10:04;45.22;;;21.35;;
46334;SDS011;32051;48.882;9.210;2023-02-11T03:12:32;42.40;;;20.17;;
46334;SDS011;32051;48.882;9.210;2023-02-11T03:15:00;41.22;;;20.20;;
46334;SDS011;32051;48.882;9.210;2023-02-11T03:17:27;39.17;;;20.67;;
46334;SDS011;32051;48.882;9.210;2023-02-11T03:19:54;41.63;;;20.65;;
46334;SDS011;32051;48.882;9.210;2023-02-11T03:22:24;38.08;;;20.50;;
46334;SDS011;32051;48.882;9.210;2023-02-11T03:24:51;41.78;;;19.95;;
46334;SDS011;32051;48.882;9.210;2023-02-11T03:27:27;51.45;;;21.55;;
46334;SDS011;32051;48.882;9.210;2023-02-11T03:30:00;50.97;;;21.10;;
46334;SDS011;32051;48.882;9.210;2023-02-11T03:32:31;42.53;;;19.30;;
46334;SDS011;32051;48.882;9.210;2023-02-11T03:35:00;44.15;;;21.63;;
46334;SDS011;32051;48.882;9.210;2023-02-11T03:39:53;42.60;;;20.73;;
46334;SDS011;32051;48.882;9.210;2023-02-11T03:42:21;34.25;;;18.30;;
46334;SDS011;32051;48.882;9.210;2023-02-11T03:44:49;47.65;;;20.55;;
46334;SDS011;32051;48.882;9.210;2023-02-11T03:47:17;41.65;;;19.90;;
46334;SDS011;32051;48.882;9.210;2023-02-11T03:49:46;46.15;;;19.73;;
46334;SDS011;32051;48.882;9.210;2023-02-11T03:52:13;41.28;;;19.33;;
46334;SDS011;32051;48.882;9.210;2023-02-11T03:54:40;39.55;;;19.65;;
46334;SDS011;32051;48.882;9.210;2023-02-11T03:57:06;40.97;;;20.50;;
46334;SDS011;32051;48.882;9.210;2023-02-11T03:59:48;34.35;;;19.23;;
46334;SDS011;32051;48.882;9.210;2023-02-11T04:02:14;39.10;;;17.98;;
46334;SDS011;32051;48.882;9.210;2023-02-11T04:04:40;37.47;;;19.40;;
46334;SDS011;32051;48.882;9.210;2023-02-11T04:07:06;35.70;;;19.52;;
46334;SDS011;32051;48.882;9.210;2023-02-11T04:09:32;35.72;;;19.85;;
46334;SDS011;32051;48.882;9.210;2023-02-11T04:11:59;40.33;;;19.73;;
46334;SDS011;32051;48.882;9.210;2023-02-11T04:14:25;37.40;;;18.55;;
46334;SDS011;32051;48.882;9.210;2023-02-11T04:16:51;36.08;;;20.98;;
46334;SDS011;32051;48.882;9.210;2023-02-11T04:19:17;39.08;;;19.17;;
46334;SDS011;32051;48.882;9.210;2023-02-11T04:21:43;40.15;;;20.58;;
46334;SDS011;32051;48.882;9.210;2023-02-11T04:24:09;34.92;;;19.45;;
46334;SDS011;32051;48.882;9.210;2023-02-11T04:26:35;37.17;;;20.35;;
46334;SDS011;32051;48.882;9.210;2023-02-11T04:29:01;35.40;;;18.13;;
46334;SDS011;32051;48.882;9.210;2023-02-11T04:31:27;35.55;;;19.15;;
46334;SDS011;32051;48.882;9.210;2023-02-11T04:33:53;33.63;;;17.63;;
46334;SDS011;32051;48.882;9.210;2023-02-11T04:36:18;40.33;;;18.73;;
46334;SDS011;32051;48.882;9.210;2023-02-11T04:38:44;34.70;;;18.17;;
46334;SDS011;32051;48.882;9.210;2023-02-11T04:41:10;32.63;;;19.70;;
46334;SDS011;32051;48.882;9.210;2023-02-11T04:43:35;35.38;;;18.77;;
46334;SDS011;32051;48.882;9.210;2023-02-11T04:46:01;36.78;;;19.30;;
46334;SDS011;32051;48.882;9.210;2023-02-11T04:48:27;38.78;;;18.65;;
46334;SDS011;32051;48.882;9.210;2023-02-11T04:50:52;37.72;;;18.55;;
46334;SDS011;32051;48.882;9.210;2023-02-11T04:53:18;31.63;;;17.65;;
46334;SDS011;32051;48.882;9.210;2023-02-11T04:55:44;40.03;;;19.52;;
46334;SDS011;32051;48.882;9.210;2023-02-11T04:58:13;31.13;;;17.90;;
46334;SDS011;32051;48.882;9.210;2023-02-11T05:00:38;32.42;;;17.95;;
46334;SDS011;32051;48.882;9.210;2023-02-11T05:03:04;32.22;;;18.88;;
46334;SDS011;32051;48.882;9.210;2023-02-11T05:05:30;47.03;;;21.33;;
46334;SDS011;32051;48.882;9.210;2023-02-11T05:07:55;35.40;;;18.98;;
46334;SDS011;32051;48.882;9.210;2023-02-11T05:10:21;44.63;;;20.27;;
46334;SDS011;32051;48.882;9.210;2023-02-11T05:12:47;37.58;;;19.20;;
46334;SDS011;32051;48.882;9.210;2023-02-11T05:15:13;43.05;;;20.20;;
46334;SDS011;32051;48.882;9.210;2023-02-11T05:17:39;32.05;;;17.92;;
46334;SDS011;32051;48.882;9.210;2023-02-11T05:20:05;34.33;;;18.55;;
46334;SDS011;32051;48.882;9.210;2023-02-11T05:22:31;34.20;;;19.33;;
46334;SDS011;32051;48.882;9.210;2023-02-11T05:24:57;39.63;;;20.48;;
46334;SDS011;32051;48.882;9.210;2023-02-11T05:27:22;35.63;;;20.50;;
46334;SDS011;32051;48.882;9.210;2023-02-11T05:29:48;38.08;;;20.48;;
46334;SDS011;32051;48.882;9.210;2023-02-11T05:32:13;41.70;;;21.23;;
46334;SDS011;32051;48.882;9.210;2023-02-11T05:34:39;31.45;;;17.80;;
46334;SDS011;32051;48.882;9.210;2023-02-11T05:37:05;37.70;;;19.33;;
46334;SDS011;32051;48.882;9.210;2023-02-11T05:39:30;37.20;;;19.40;;
46334;SDS011;32051;48.882;9.210;2023-02-11T05:41:56;38.13;;;19.23;;
46334;SDS011;32051;48.882;9.210;2023-02-11T05:44:22;37.88;;;19.45;;
46334;SDS011;32051;48.882;9.210;2023-02-11T05:46:49;41.25;;;20.70;;
46334;SDS011;32051;48.882;9.210;2023-02-11T05:49:15;39.35;;;20.40;;
46334;SDS011;32051;48.882;9.210;2023-02-11T05:51:41;33.10;;;18.83;;
46334;SDS011;32051;48.882;9.210;2023-02-11T05:54:07;36.90;;;19.23;;
46334;SDS011;32051;48.882;9.210;2023-02-11T05:56:34;36.28;;;20.45;;
46334;SDS011;32051;48.882;9.210;2023-02-11T05:59:00;34.20;;;19.35;;
46334;SDS011;32051;48.882;9.210;2023-02-11T06:01:26;27.17;;;17.33;;
46334;SDS011;32051;48.882;9.210;2023-02-11T06:03:52;30.98;;;17.90;;
46334;SDS011;32051;48.882;9.210;2023-02-11T06:06:19;26.85;;;15.65;;
46334;SDS011;32051;48.882;9.210;2023-02-11T06:08:45;35.65;;;18.60;;
46334;SDS011;32051;48.882;9.210;2023-02-11T06:11:13;33.70;;;18.88;;
46334;SDS011;32051;48.882;9.210;2023-02-11T06:13:39;34.47;;;19.05;;
46334;SDS011;32051;48.882;9.210;2023-02-11T06:16:05;31.38;;;17.77;;
46334;SDS011;32051;48.882;9.210;2023-02-11T06:18:31;33.35;;;17.70;;
46334;SDS011;32051;48.882;9.210;2023-02-11T06:20:58;28.77;;;17.83;;
46334;SDS011;32051;48.882;9.210;2023-02-11T06:23:24;37.88;;;17.50;;
46334;SDS011;32051;48.882;9.210;2023-02-11T06:25:51;35.35;;;17.80;;
46334;SDS011;32051;48.882;9.210;2023-02-11T06:28:17;30.80;;;17.38;;
46334;SDS011;32051;48.882;9.210;2023-02-11T06:30:43;29.80;;;16.95;;
46334;SDS011;32051;48.882;9.210;2023-02-11T06:33:09;38.70;;;19.48;;
46334;SDS011;32051;48.882;9.210;2023-02-11T06:35:38;29.77;;;18.05;;
46334;SDS011;32051;48.882;9.210;2023-02-11T06:38:04;27.30;;;16.63;;
46334;SDS011;32051;48.882;9.210;2023-02-11T06:40:31;35.25;;;17.35;;
46334;SDS011;32051;48.882;9.210;2023-02-11T06:42:57;34.83;;;18.40;;
46334;SDS011;32051;48.882;9.210;2023-02-11T06:45:23;26.50;;;17.13;;
46334;SDS011;32051;48.882;9.210;2023-02-11T06:47:50;31.23;;;16.50;;
46334;SDS011;32051;48.882;9.210;2023-02-11T06:50:16;29.35;;;15.48;;
46334;SDS011;32051;48.882;9.210;2023-02-11T06:52:42;30.70;;;17.00;;
46334;SDS011;32051;48.882;9.210;2023-02-11T06:55:09;25.50;;;16.77;;
46334;SDS011;32051;48.882;9.210;2023-02-11T06:57:35;35.60;;;19.45;;
46334;SDS011;32051;48.882;9.210;2023-02-11T07:00:01;39.90;;;20.08;;
46334;SDS011;32051;48.882;9.210;2023-02-11T07:02:27;28.90;;;17.70;;
46334;SDS011;32051;48.882;9.210;2023-02-11T07:04:53;31.90;;;17.42;;
46334;SDS011;32051;48.882;9.210;2023-02-11T07:07:19;31.13;;;17.48;;
46334;SDS011;32051;48.882;9.210;2023-02-11T07:09:45;34.00;;;18.25;;
46334;SDS011;32051;48.882;9.210;2023-02-11T07:12:11;28.23;;;16.05;;
46334;SDS011;32051;48.882;9.210;2023-02-11T07:14:37;30.50;;;17.98;;
46334;SDS011;32051;48.882;9.210;2023-02-11T07:17:03;32.17;;;17.13;;
46334;SDS011;32051;48.882;9.210;2023-02-11T07:19:29;32.88;;;18.10;;
46334;SDS011;32051;48.882;9.210;2023-02-11T07:21:56;36.00;;;17.75;;
46334;SDS011;32051;48.882;9.210;2023-02-11T07:24:22;30.33;;;17.33;;
46334;SDS011;32051;48.882;9.210;2023-02-11T07:26:48;28.80;;;18.17;;
46334;SDS011;32051;48.882;9.210;2023-02-11T07:29:15;28.35;;;17.77;;
46334;SDS011;32051;48.882;9.210;2023-02-11T07:31:41;35.65;;;16.90;;
46334;SDS011;32051;48.882;9.210;2023-02-11T07:34:08;41.95;;;17.27;;
46334;SDS011;32051;48.882;9.210;2023-02-11T07:36:35;43.10;;;17.60;;
46334;SDS011;32051;48.882;9.210;2023-02-11T07:39:02;36.22;;;17.55;;
46334;SDS011;32051;48.882;9.210;2023-02-11T07:41:28;37.53;;;16.60;;
46334;SDS011;32051;48.882;9.210;2023-02-11T07:43:54;29.67;;;16.98;;
46334;SDS011;32051;48.882;9.210;2023-02-11T07:46:24;31.98;;;18.80;;
46334;SDS011;32051;48.882;9.210;2023-02-11T07:48:51;29.42;;;17.85;;
46334;SDS011;32051;48.882;9.210;2023-02-11T07:51:19;39.22;;;17.95;;
46334;SDS011;32051;48.882;9.210;2023-02-11T07:53:45;32.33;;;17.60;;
46334;SDS011;32051;48.882;9.210;2023-02-11T07:56:12;35.55;;;19.05;;
46334;SDS011;32051;48.882;9.210;2023-02-11T07:58:39;37.08;;;17.85;;
46334;SDS011;32051;48.882;9.210;2023-02-11T08:01:08;26.90;;;16.33;;
46334;SDS011;32051;48.882;9.210;2023-02-11T08:03:35;30.55;;;16.42;;
46334;SDS011;32051;48.882;9.210;2023-02-11T08:06:02;25.10;;;15.82;;
46334;SDS011;32051;48.882;9.210;2023-02-11T08:08:28;33.80;;;17.77;;
46334;SDS011;32051;48.882;9.210;2023-02-11T08:10:54;31.00;;;17.00;;
46334;SDS011;32051;48.882;9.210;2023-02-11T08:13:20;28.77;;;17.35;;
46334;SDS011;32051;48.882;9.210;2023-02-11T08:15:46;39.20;;;17.88;;
46334;SDS011;32051;48.882;9.210;2023-02-11T08:18:12;29.40;;;17.75;;
46334;SDS011;32051;48.882;9.210;2023-02-11T08:20:38;28.23;;;17.25;;
46334;SDS011;32051;48.882;9.210;2023-02-11T08:23:05;26.80;;;17.40;;
46334;SDS011;32051;48.882;9.210;2023-02-11T08:25:32;32.30;;;17.13;;
46334;SDS011;32051;48.882;9.210;2023-02-11T08:27:58;26.92;;;16.45;;
46334;SDS011;32051;48.882;9.210;2023-02-11T08:30:24;35.63;;;17.70;;
46334;SDS011;32051;48.882;9.210;2023-02-11T08:32:50;28.02;;;17.42;;
46334;SDS011;32051;48.882;9.210;2023-02-11T08:35:16;28.38;;;17.63;;
46334;SDS011;32051;48.882;9.210;2023-02-11T08:37:42;27.63;;;16.75;;
46334;SDS011;32051;48.882;9.210;2023-02-11T08:40:08;28.55;;;16.55;;
46334;SDS011;32051;48.882;9.210;2023-02-11T08:42:34;28.95;;;16.98;;
46334;SDS011;32051;48.882;9.210;2023-02-11T08:45:00;30.25;;;17.23;;
46334;SDS011;32051;48.882;9.210;2023-02-11T08:47:27;25.88;;;15.88;;
46334;SDS011;32051;48.882;9.210;2023-02-11T08:49:53;33.75;;;17.60;;
46334;SDS011;32051;48.882;9.210;2023-02-11T08:52:19;30.02;;;17.63;;
46334;SDS011;32051;48.882;9.210;2023-02-11T08:54:45;24.38;;;15.95;;
46334;SDS011;32051;48.882;9.210;2023-02-11T08:57:11;30.33;;;15.93;;
46334;SDS011;32051;48.882;9.210;2023-02-11T08:59:37;32.22;;;19.05;;
46334;SDS011;32051;48.882;9.210;2023-02-11T09:02:04;29.70;;;17.80;;
46334;SDS011;32051;48.882;9.210;2023-02-11T09:04:30;26.80;;;18.33;;
46334;SDS011;32051;48.882;9.210;2023-02-11T09:06:56;24.27;;;17.25;;
46334;SDS011;32051;48.882;9.210;2023-02-11T09:09:22;28.98;;;16.85;;
46334;SDS011;32051;48.882;9.210;2023-02-11T09:11:48;22.80;;;15.57;;
46334;SDS011;32051;48.882;9.210;2023-02-11T09:14:19;29.33;;;16.08;;
46334;SDS011;32051;48.882;9.210;2023-02-11T09:16:46;26.95;;;15.90;;
46334;SDS011;32051;48.882;9.210;2023-02-11T09:19:12;29.70;;;15.80;;
46334;SDS011;32051;48.882;9.210;2023-02-11T09:21:38;33.85;;;16.90;;
46334;SDS011;32051;48.882;9.210;2023-02-11T09:24:04;23.33;;;14.77;;
46334;SDS011;32051;48.882;9.210;2023-02-11T09:26:31;29.70;;;15.55;;
46334;SDS011;32051;48.882;9.210;2023-02-11T09:28:58;27.13;;;15.07;;
46334;SDS011;32051;48.882;9.210;2023-02-11T09:31:25;24.08;;;15.13;;
46334;SDS011;32051;48.882;9.210;2023-02-11T09:33:52;33.13;;;15.63;;
46334;SDS011;32051;48.882;9.210;2023-02-11T09:36:23;26.15;;;15.90;;
46334;SDS011;32051;48.882;9.210;2023-02-11T09:38:49;28.52;;;15.80;;
46334;SDS011;32051;48.882;9.210;2023-02-11T09:43:48;27.50;;;14.77;;
46334;SDS011;32051;48.882;9.210;2023-02-11T09:46:15;27.88;;;15.95;;
46334;SDS011;32051;48.882;9.210;2023-02-11T09:48:43;32.17;;;17.58;;
46334;SDS011;32051;48.882;9.210;2023-02-11T09:51:20;25.15;;;15.65;;
46334;SDS011;32051;48.882;9.210;2023-02-11T09:53:50;29.15;;;16.15;;
46334;SDS011;32051;48.882;9.210;2023-02-11T09:56:17;36.83;;;15.70;;
46334;SDS011;32051;48.882;9.210;2023-02-11T09:58:43;30.83;;;16.27;;
46334;SDS011;32051;48.882;9.210;2023-02-11T10:06:23;29.35;;;15.57;;
46334;SDS011;32051;48.882;9.210;2023-02-11T10:14:09;24.40;;;14.40;;
46334;SDS011;32051;48.882;9.210;2023-02-11T10:24:26;20.17;;;14.27;;
46334;SDS011;32051;48.882;9.210;2023-02-11T10:26:53;21.58;;;13.27;;
46334;SDS011;32051;48.882;9.210;2023-02-11T10:32:01;20.90;;;13.88;;
46334;SDS011;32051;48.882;9.210;2023-02-11T10:34:28;17.95;;;11.15;;
46334;SDS011;32051;48.882;9.210;2023-02-11T10:36:55;22.35;;;11.68;;
46334;SDS011;32051;48.882;9.210;2023-02-11T10:39:22;17.98;;;11.00;;
46334;SDS011;32051;48.882;9.210;2023-02-11T10:41:52;16.00;;;8.38;;
46334;SDS011;32051;48.882;9.210;2023-02-11T10:46:48;8.30;;;7.00;;
46334;SDS011;32051;48.882;9.210;2023-02-11T10:49:31;10.45;;;7.15;;
46334;SDS011;32051;48.882;9.210;2023-02-11T10:57:22;8.88;;;6.68;;
46334;SDS011;32051;48.882;9.210;2023-02-11T10:59:54;15.27;;;6.30;;
46334;SDS011;32051;48.882;9.210;2023-02-11T11:05:00;11.77;;;5.63;;
46334;SDS011;32051;48.882;9.210;2023-02-11T11:07:30;11.40;;;5.70;;
46334;SDS011;32051;48.882;9.210;2023-02-11T11:10:02;9.98;;;6.80;;
46334;SDS011;32051;48.882;9.210;2023-02-11T11:12:36;5.78;;;5.28;;
46334;SDS011;32051;48.882;9.210;2023-02-11T11:17:34;7.65;;;5.43;;
46334;SDS011;32051;48.882;9.210;2023-02-11T11:22:45;6.82;;;5.88;;
46334;SDS011;32051;48.882;9.210;2023-02-11T11:25:27;8.75;;;6.57;;
46334;SDS011;32051;48.882;9.210;2023-02-11T11:27:55;10.10;;;7.28;;
46334;SDS011;32051;48.882;9.210;2023-02-11T11:30:22;7.20;;;6.47;;
46334;SDS011;32051;48.882;9.210;2023-02-11T11:32:50;8.80;;;6.63;;
46334;SDS011;32051;48.882;9.210;2023-02-11T11:35:24;17.13;;;6.85;;
46334;SDS011;32051;48.882;9.210;2023-02-11T11:37:54;7.13;;;6.43;;
46334;SDS011;32051;48.882;9.210;2023-02-11T11:40:22;8.68;;;5.95;;
46334;SDS011;32051;48.882;9.210;2023-02-11T11:43:02;7.65;;;5.68;;
46334;SDS011;32051;48.882;9.210;2023-02-11T11:45:28;10.23;;;7.65;;
46334;SDS011;32051;48.882;9.210;2023-02-11T11:47:55;8.82;;;7.68;;
46334;SDS011;32051;48.882;9.210;2023-02-11T11:50:26;9.70;;;7.22;;
46334;SDS011;32051;48.882;9.210;2023-02-11T11:55:24;7.43;;;6.72;;
46334;SDS011;32051;48.882;9.210;2023-02-11T11:57:51;8.68;;;6.47;;
46334;SDS011;32051;48.882;9.210;2023-02-11T12:00:19;31.83;;;7.30;;
46334;SDS011;32051;48.882;9.210;2023-02-11T12:18:26;14.95;;;6.75;;
46334;SDS011;32051;48.882;9.210;2023-02-11T12:26:17;9.30;;;6.93;;
46334;SDS011;32051;48.882;9.210;2023-02-11T12:36:32;10.68;;;9.00;;
46334;SDS011;32051;48.882;9.210;2023-02-11T12:46:56;14.15;;;8.82;;
46334;SDS011;32051;48.882;9.210;2023-02-11T12:49:27;12.27;;;9.45;;
46334;SDS011;32051;48.882;9.210;2023-02-11T12:52:05;13.23;;;9.52;;
46334;SDS011;32051;48.882;9.210;2023-02-11T12:57:38;10.45;;;9.35;;
46334;SDS011;32051;48.882;9.210;2023-02-11T13:02:46;13.68;;;9.85;;
46334;SDS011;32051;48.882;9.210;2023-02-11T13:07:54;17.95;;;10.68;;
46334;SDS011;32051;48.882;9.210;2023-02-11T13:15:44;19.13;;;11.52;;
46334;SDS011;32051;48.882;9.210;2023-02-11T13:20:44;13.95;;;10.02;;
46334;SDS011;32051;48.882;9.210;2023-02-11T13:25:52;15.23;;;10.57;;
46334;SDS011;32051;48.882;9.210;2023-02-11T13:28:25;13.65;;;11.05;;
46334;SDS011;32051;48.882;9.210;2023-02-11T13:30:52;13.30;;;10.82;;
46334;SDS011;32051;48.882;9.210;2023-02-11T13:33:37;23.17;;;11.98;;
46334;SDS011;32051;48.882;9.210;2023-02-11T13:38:33;17.45;;;11.07;;
46334;SDS011;32051;48.882;9.210;2023-02-11T13:43:28;16.88;;;9.88;;
46334;SDS011;32051;48.882;9.210;2023-02-11T13:45:59;15.38;;;10.93;;
46334;SDS011;32051;48.882;9.210;2023-02-11T13:48:29;10.73;;;9.63;;
46334;SDS011;32051;48.882;9.210;2023-02-11T13:51:03;26.48;;;10.50;;
46334;SDS011;32051;48.882;9.210;2023-02-11T13:56:04;13.18;;;9.98;;
46334;SDS011;32051;48.882;9.210;2023-02-11T13:58:34;20.17;;;10.20;;
46334;SDS011;32051;48.882;9.210;2023-02-11T14:01:04;21.00;;;11.43;;
46334;SDS011;32051;48.882;9.210;2023-02-11T14:03:36;20.20;;;12.57;;
46334;SDS011;32051;48.882;9.210;2023-02-11T14:06:25;14.70;;;11.10;;
46334;SDS011;32051;48.882;9.210;2023-02-11T14:14:19;26.08;;;10.60;;
46334;SDS011;32051;48.882;9.210;2023-02-11T14:24:49;16.70;;;10.77;;
46334;SDS011;32051;48.882;9.210;2023-02-11T14:27:30;16.15;;;10.98;;
46334;SDS011;32051;48.882;9.210;2023-02-11T14:30:06;19.98;;;10.70;;
46334;SDS011;32051;48.882;9.210;2023-02-11T14:35:26;15.00;;;10.23;;
46334;SDS011;32051;48.882;9.210;2023-02-11T14:38:10;14.18;;;9.85;;
46334;SDS011;32051;48.882;9.210;2023-02-11T14:40:40;10.95;;;9.10;;
46334;SDS011;32051;48.882;9.210;2023-02-11T14:43:25;13.30;;;9.80;;
46334;SDS011;32051;48.882;9.210;2023-02-11T14:45:55;14.75;;;9.63;;
46334;SDS011;32051;48.882;9.210;2023-02-11T14:48:26;17.15;;;9.98;;
46334;SDS011;32051;48.882;9.210;2023-02-11T14:51:09;10.80;;;9.52;;
46334;SDS011;32051;48.882;9.210;2023-02-11T14:53:49;10.65;;;9.13;;
46334;SDS011;32051;48.882;9.210;2023-02-11T14:56:21;16.25;;;10.82;;
46334;SDS011;32051;48.882;9.210;2023-02-11T14:58:50;11.93;;;9.65;;
46334;SDS011;32051;48.882;9.210;2023-02-11T15:01:25;18.10;;;10.95;;
46334;SDS011;32051;48.882;9.210;2023-02-11T15:04:28;21.13;;;10.10;;
46334;SDS011;32051;48.882;9.210;2023-02-11T15:07:03;14.55;;;10.60;;
46334;SDS011;32051;48.882;9.210;2023-02-11T15:12:18;22.30;;;10.88;;
46334;SDS011;32051;48.882;9.210;2023-02-11T15:14:48;10.60;;;9.60;;
46334;SDS011;32051;48.882;9.210;2023-02-11T15:17:18;21.27;;;10.43;;
46334;SDS011;32051;48.882;9.210;2023-02-11T15:19:48;14.60;;;9.82;;
46334;SDS011;32051;48.882;9.210;2023-02-11T15:22:20;15.50;;;11.40;;
46334;SDS011;32051;48.882;9.210;2023-02-11T15:25:00;13.73;;;8.77;;
46334;SDS011;32051;48.882;9.210;2023-02-11T15:27:26;11.93;;;10.70;;
46334;SDS011;32051;48.882;9.210;2023-02-11T15:29:52;16.48;;;10.23;;
46334;SDS011;32051;48.882;9.210;2023-02-11T15:32:18;10.25;;;9.23;;
46334;SDS011;32051;48.882;9.210;2023-02-11T15:34:46;14.40;;;9.55;;
46334;SDS011;32051;48.882;9.210;2023-02-11T15:37:13;11.15;;;9.80;;
46334;SDS011;32051;48.882;9.210;2023-02-11T15:39:46;16.77;;;11.07;;
46334;SDS011;32051;48.882;9.210;2023-02-11T15:42:19;13.90;;;10.07;;
46334;SDS011;32051;48.882;9.210;2023-02-11T15:44:45;12.88;;;10.23;;
46334;SDS011;32051;48.882;9.210;2023-02-11T15:47:12;19.83;;;12.68;;
46334;SDS011;32051;48.882;9.210;2023-02-11T15:49:43;16.67;;;10.93;;
46334;SDS011;32051;48.882;9.210;2023-02-11T15:52:10;16.42;;;10.73;;
46334;SDS011;32051;48.882;9.210;2023-02-11T15:54:38;14.63;;;12.27;;
46334;SDS011;32051;48.882;9.210;2023-02-11T15:57:06;16.23;;;11.73;;
46334;SDS011;32051;48.882;9.210;2023-02-11T15:59:34;15.95;;;11.65;;
46334;SDS011;32051;48.882;9.210;2023-02-11T16:02:08;15.82;;;12.23;;
46334;SDS011;32051;48.882;9.210;2023-02-11T16:04:35;18.33;;;11.70;;
46334;SDS011;32051;48.882;9.210;2023-02-11T16:07:01;16.05;;;12.32;;
46334;SDS011;32051;48.882;9.210;2023-02-11T16:09:31;20.85;;;13.43;;
46334;SDS011;32051;48.882;9.210;2023-02-11T16:11:59;23.00;;;14.00;;
46334;SDS011;32051;48.882;9.210;2023-02-11T16:16:57;18.35;;;12.05;;
46334;SDS011;32051;48.882;9.210;2023-02-11T16:19:29;21.60;;;13.38;;
46334;SDS011;32051;48.882;9.210;2023-02-11T16:21:57;21.02;;;13.02;;
46334;SDS011;32051;48.882;9.210;2023-02-11T16:24:26;20.13;;;14.43;;
46334;SDS011;32051;48.882;9.210;2023-02-11T16:26:56;20.90;;;12.77;;
46334;SDS011;32051;48.882;9.210;2023-02-11T16:29:27;24.00;;;13.88;;
46334;SDS011;32051;48.882;9.210;2023-02-11T16:32:08;16.23;;;12.52;;
46334;SDS011;32051;48.882;9.210;2023-02-11T16:34:39;19.98;;;13.48;;
46334;SDS011;32051;48.882;9.210;2023-02-11T16:37:05;30.92;;;14.75;;
46334;SDS011;32051;48.882;9.210;2023-02-11T16:39:31;21.10;;;13.52;;
46334;SDS011;32051;48.882;9.210;2023-02-11T16:41:57;25.83;;;13.23;;
46334;SDS011;32051;48.882;9.210;2023-02-11T16:44:23;25.27;;;14.95;;
46334;SDS011;32051;48.882;9.210;2023-02-11T16:46:49;22.48;;;13.73;;
46334;SDS011;32051;48.882;9.210;2023-02-11T16:49:19;20.98;;;14.38;;
46334;SDS011;32051;48.882;9.210;2023-02-11T16:51:46;26.92;;;14.10;;
46334;SDS011;32051;48.882;9.210;2023-02-11T16:54:17;20.38;;;13.73;;
46334;SDS011;32051;48.882;9.210;2023-02-11T16:56:43;21.05;;;13.02;;
46334;SDS011;32051;48.882;9.210;2023-02-11T16:59:09;26.27;;;13.77;;
46334;SDS011;32051;48.882;9.210;2023-02-11T17:01:35;18.33;;;14.07;;
46334;SDS011;32051;48.882;9.210;2023-02-11T17:04:02;21.38;;;13.60;;